Date,TemperatureHighF,TemperatureAvgF,TemperatureLowF,DewpointHighF,DewpointAvgF,DewpointLowF,HumidityHigh,HumidityAvg,HumidityLow,PressureMaxIn,PressureMinIn,WindSpeedMaxMPH,WindSpeedAvgMPH,GustSpeedMaxMPH,PrecipitationSumIn
2013-5-1,83,72,63,68,64,61,94,77,53,29.90,29.74,7,2,12,0.00
2013-5-2,66,54,44,63,50,38,93,87,79,30.26,29.91,15,6,28,0.08
2013-5-3,65,52,40,40,37,32,87,59,29,30.24,29.98,15,4,24,0.00
2013-5-4,71,57,41,41,37,32,82,51,24,29.99,29.84,11,2,18,0.00
2013-5-5,66,55,44,49,44,40,88,68,50,30.10,29.98,13,2,16,0.00
2013-5-6,77,63,47,58,52,45,94,70,45,30.07,29.93,5,1,11,0.00
2013-5-7,84,71,55,59,55,51,87,59,36,30.03,29.89,6,1,8,0.00
2013-5-8,84,73,61,63,59,53,80,62,44,29.96,29.82,11,3,18,0.00
2013-5-9,72,68,65,69,65,58,96,88,65,29.93,29.77,10,2,19,0.25
2013-5-10,82,71,65,68,65,59,95,81,57,29.98,29.81,5,1,12,0.00
2013-5-11,79,69,60,59,54,49,89,62,36,30.11,29.94,14,2,25,0.00
2013-5-12,78,66,57,54,43,33,72,46,20,30.21,30.09,10,2,16,0.00
2013-5-13,86,70,53,54,50,44,77,51,29,30.20,30.06,9,1,11,0.00
2013-5-14,86,74,61,64,58,53,87,58,33,30.12,29.94,12,3,17,0.00
2013-5-15,77,70,62,69,66,59,95,88,70,30.00,29.77,12,4,21,1.14
2013-5-16,80,70,62,72,67,61,96,89,75,29.82,29.70,11,2,18,1.23
2013-5-17,89,79,71,75,73,69,96,81,62,29.81,29.73,11,2,14,0.00
2013-5-18,90,80,71,77,72,68,90,76,59,29.85,29.71,10,3,16,0.00
2013-5-19,89,80,70,73,70,68,91,74,55,29.79,29.64,12,5,20,0.00
2013-5-20,88,80,73,74,71,69,88,76,60,29.77,29.61,11,4,19,0.00
2013-5-21,86,73,63,75,68,61,96,85,68,29.81,29.59,13,2,30,1.08
2013-5-22,83,71,59,67,63,58,96,77,52,29.89,29.77,5,1,8,0.00
2013-5-23,86,77,69,74,71,66,95,81,63,30.02,29.83,8,2,16,0.00
2013-5-24,86,77,68,76,72,65,94,83,67,30.12,29.94,10,2,16,0.10
2013-5-25,85,74,68,73,69,66,94,84,64,30.10,29.98,9,2,12,0.00
2013-5-26,88,78,71,74,71,68,93,79,59,30.03,29.88,11,3,16,0.00
2013-5-27,87,79,71,72,70,68,91,74,57,29.93,29.75,12,3,18,0.00
2013-5-28,87,79,72,71,69,67,87,72,53,29.84,29.71,12,4,19,0.00
2013-5-29,84,77,73,72,70,69,87,79,66,29.78,29.66,14,5,19,0.00
2013-5-30,87,81,75,76,73,70,86,77,66,29.75,29.64,14,4,21,0.00
2013-5-31,91,83,77,76,74,72,87,74,55,29.78,29.62,12,3,15,0.00